Time;durP1;ratioP1;P1;durP2;ratioP2;P2;SDS_P1;SDS_P2;PMS_P1;PMS_P2;Temp;Humidity;BMP_temperature;BMP_pressure;BME280_temperature;BME280_humidity;BME280_pressure;Samples;Min_cycle;Max_cycle;Signal;HPM_P1;HPM_P2
2022/07/25 00:00:09;;;;;;;6.25;3.47;;;26.00;99.90;;;;;;5074602;28;20181;-77
2022/07/25 00:02:35;;;;;;;4.38;3.83;;;26.10;99.90;;;;;;5080098;28;20173;-77
2022/07/25 00:05:01;;;;;;;4.38;3.35;;;26.00;99.90;;;;;;5087444;28;20189;-77
2022/07/25 00:07:27;;;;;;;5.28;3.83;;;26.10;99.90;;;;;;5082024;28;20296;-74
2022/07/25 00:09:53;;;;;;;6.07;4.38;;;26.00;99.90;;;;;;5081572;28;20259;-78
2022/07/25 00:12:19;;;;;;;6.75;4.05;;;25.90;99.90;;;;;;5092471;28;20184;-78
2022/07/25 00:14:45;;;;;;;8.70;4.88;;;25.80;99.90;;;;;;5082053;28;20209;-78
2022/07/25 00:17:10;;;;;;;5.55;4.78;;;25.90;99.90;;;;;;5092104;28;20230;-78
2022/07/25 00:19:37;;;;;;;10.63;4.80;;;25.90;99.90;;;;;;5074515;28;20184;-78
2022/07/25 00:22:03;;;;;;;8.02;4.85;;;26.00;99.90;;;;;;5087774;28;20176;-75
2022/07/25 00:24:29;;;;;;;5.97;4.88;;;25.90;99.90;;;;;;5088267;28;20230;-78
2022/07/25 00:26:54;;;;;;;6.15;4.53;;;25.80;99.90;;;;;;5092506;28;20208;-77
2022/07/25 00:29:20;;;;;;;10.35;5.03;;;25.90;99.90;;;;;;5092508;28;20189;-78
2022/07/25 00:31:46;;;;;;;6.00;4.60;;;25.90;99.90;;;;;;5086577;28;20185;-74
2022/07/25 00:34:12;;;;;;;4.70;3.88;;;25.80;99.90;;;;;;5086887;28;20189;-78
2022/07/25 00:36:37;;;;;;;7.10;4.82;;;25.70;99.90;;;;;;5065727;28;20548;-78
2022/07/25 00:39:03;;;;;;;5.03;4.25;;;25.80;99.90;;;;;;5083336;28;20191;-77
2022/07/25 00:41:29;;;;;;;16.08;4.63;;;25.80;99.90;;;;;;5088425;28;20189;-78
2022/07/25 00:43:55;;;;;;;5.15;4.57;;;25.70;99.90;;;;;;5073896;28;20192;-78
2022/07/25 00:46:20;;;;;;;6.70;4.15;;;25.70;99.90;;;;;;5074322;28;20588;-77
2022/07/25 00:48:46;;;;;;;5.55;4.70;;;25.70;99.90;;;;;;5092019;28;20641;-77
2022/07/25 00:51:13;;;;;;;7.65;5.15;;;25.80;99.90;;;;;;5081193;28;20272;-77
2022/07/25 00:53:39;;;;;;;8.68;4.60;;;25.80;99.90;;;;;;5072340;28;20189;-77
2022/07/25 00:56:05;;;;;;;22.90;5.35;;;25.70;99.90;;;;;;5087755;28;20191;-77
2022/07/25 00:58:32;;;;;;;6.05;4.38;;;25.70;99.90;;;;;;5083916;28;20192;-76
2022/07/25 01:00:58;;;;;;;6.18;4.72;;;25.70;99.90;;;;;;5070249;28;20226;-78
2022/07/25 01:03:24;;;;;;;7.45;4.82;;;25.60;99.90;;;;;;5091965;28;20226;-78
2022/07/25 01:05:50;;;;;;;6.18;4.15;;;25.50;99.90;;;;;;5072085;28;20231;-77
2022/07/25 01:08:20;;;;;;;4.78;4.15;;;25.50;99.90;;;;;;5082201;28;20232;-78
2022/07/25 01:10:47;;;;;;;6.38;4.90;;;25.50;99.90;;;;;;5078832;28;20259;-75
2022/07/25 01:13:13;;;;;;;6.20;4.80;;;25.40;99.90;;;;;;5081432;28;20307;-77
2022/07/25 01:15:39;;;;;;;5.82;4.90;;;25.50;99.90;;;;;;5095889;28;20681;-77
2022/07/25 01:18:05;;;;;;;6.07;4.60;;;25.40;99.90;;;;;;5095903;28;20185;-78
2022/07/25 01:20:32;;;;;;;4.93;4.22;;;25.40;99.90;;;;;;5088383;28;20196;-77
2022/07/25 01:22:58;;;;;;;4.90;4.28;;;25.40;99.90;;;;;;5067639;28;20193;-77
2022/07/25 01:25:25;;;;;;;4.88;3.55;;;25.50;99.90;;;;;;5091828;28;20192;-77
2022/07/25 01:27:52;;;;;;;6.10;3.88;;;25.50;99.90;;;;;;5086479;28;20212;-77
2022/07/25 01:30:19;;;;;;;8.80;4.45;;;25.40;99.90;;;;;;5065073;28;20645;-78
2022/07/25 01:32:45;;;;;;;5.70;4.30;;;25.40;99.90;;;;;;5066198;28;20315;-78
2022/07/25 01:35:12;;;;;;;4.47;3.95;;;25.20;99.90;;;;;;5092688;28;20218;-78
2022/07/25 01:37:38;;;;;;;5.18;4.55;;;25.00;99.90;;;;;;5067340;28;20261;-77
2022/07/25 01:40:05;;;;;;;5.47;4.85;;;24.80;99.90;;;;;;5059484;28;20190;-77
2022/07/25 01:42:31;;;;;;;6.90;4.80;;;24.70;99.90;;;;;;5077366;28;20185;-78
2022/07/25 01:44:58;;;;;;;7.00;4.78;;;24.70;99.90;;;;;;5082398;28;20231;-78
2022/07/25 01:47:24;;;;;;;9.57;6.18;;;24.50;99.90;;;;;;5068547;28;20204;-77
2022/07/25 01:49:49;;;;;;;5.28;4.57;;;24.60;99.90;;;;;;5081659;28;20243;-78
2022/07/25 01:52:15;;;;;;;5.63;4.97;;;24.50;99.90;;;;;;5091698;28;20189;-78
2022/07/25 01:54:41;;;;;;;9.18;6.05;;;24.50;99.90;;;;;;5095122;28;20272;-78
2022/07/25 01:57:07;;;;;;;9.52;5.38;;;24.40;99.90;;;;;;5076648;28;20186;-78
2022/07/25 01:59:37;;;;;;;5.90;5.40;;;24.40;99.90;;;;;;5093049;28;20638;-77
2022/07/25 02:02:04;;;;;;;10.73;5.35;;;24.30;99.90;;;;;;5095293;28;20173;-78
2022/07/25 02:04:29;;;;;;;7.22;6.20;;;24.30;99.90;;;;;;5095004;28;20197;-78
2022/07/25 02:06:55;;;;;;;5.97;4.85;;;24.30;99.90;;;;;;5093069;28;20212;-78
2022/07/25 02:09:21;;;;;;;9.25;5.55;;;24.20;99.90;;;;;;5076160;28;20236;-78
2022/07/25 02:11:47;;;;;;;6.18;5.47;;;24.20;99.90;;;;;;5093483;28;20645;-78
2022/07/25 02:14:13;;;;;;;5.95;4.72;;;24.10;99.90;;;;;;5069304;28;20227;-78
2022/07/25 02:16:38;;;;;;;9.80;5.43;;;24.20;99.90;;;;;;5088722;28;20277;-78
2022/07/25 02:19:04;;;;;;;7.93;4.93;;;24.20;99.90;;;;;;5057999;28;20193;-78
2022/07/25 02:21:30;;;;;;;7.05;5.75;;;24.20;99.90;;;;;;5069899;28;20188;-77
2022/07/25 02:23:56;;;;;;;6.07;4.50;;;24.10;99.90;;;;;;5086644;28;20189;-78
2022/07/25 02:26:21;;;;;;;7.07;5.22;;;24.10;99.90;;;;;;5092413;28;20185;-78
2022/07/25 02:28:48;;;;;;;9.07;4.90;;;24.00;99.90;;;;;;5083713;28;20582;-78
2022/07/25 02:31:14;;;;;;;6.13;4.82;;;23.90;99.90;;;;;;5067752;28;20726;-78
2022/07/25 02:33:40;;;;;;;6.22;4.40;;;23.90;99.90;;;;;;5094313;28;20605;-78
2022/07/25 02:36:06;;;;;;;7.35;6.65;;;23.90;99.90;;;;;;5094086;28;20192;-78
2022/07/25 02:38:32;;;;;;;8.40;4.70;;;23.80;99.90;;;;;;5080348;28;20546;-77
2022/07/25 02:40:57;;;;;;;6.05;5.10;;;23.90;99.90;;;;;;5075703;28;20191;-78
2022/07/25 02:43:23;;;;;;;8.85;5.30;;;23.90;99.90;;;;;;5076823;28;20187;-78
2022/07/25 02:45:49;;;;;;;7.63;5.00;;;23.90;99.90;;;;;;5075250;28;20211;-78
2022/07/25 02:48:14;;;;;;;6.82;4.80;;;23.80;99.90;;;;;;5075938;28;20565;-78
2022/07/25 02:50:40;;;;;;;7.88;5.28;;;23.90;99.90;;;;;;5093578;28;20645;-78
2022/07/25 02:53:06;;;;;;;7.38;5.10;;;23.90;99.90;;;;;;5089585;28;20197;-77
2022/07/25 02:55:32;;;;;;;6.90;4.50;;;24.00;99.90;;;;;;5075138;28;20176;-77
2022/07/25 02:57:57;;;;;;;5.53;4.18;;;24.20;99.90;;;;;;5059239;28;20553;-77
2022/07/25 03:00:23;;;;;;;5.28;4.43;;;24.20;99.90;;;;;;5072061;28;20217;-76
2022/07/25 03:02:49;;;;;;;13.13;5.15;;;24.20;99.90;;;;;;5090628;28;20212;-78
2022/07/25 03:05:16;;;;;;;5.80;4.60;;;24.30;99.90;;;;;;5074708;28;20224;-78
2022/07/25 03:07:43;;;;;;;7.00;5.57;;;24.50;99.90;;;;;;5080978;28;20215;-77
2022/07/25 03:10:10;;;;;;;5.47;4.15;;;24.30;99.90;;;;;;5093300;28;20185;-77
2022/07/25 03:12:36;;;;;;;8.20;5.22;;;24.40;99.90;;;;;;5093020;28;20197;-77
2022/07/25 03:15:03;;;;;;;5.95;5.20;;;24.40;99.90;;;;;;5051965;28;20184;-76
2022/07/25 03:17:29;;;;;;;6.80;5.15;;;24.50;99.90;;;;;;5091046;28;20594;-77
2022/07/25 03:19:55;;;;;;;6.75;5.00;;;24.60;99.90;;;;;;5089783;28;20209;-78
2022/07/25 03:22:22;;;;;;;10.40;5.60;;;24.50;99.90;;;;;;5085930;28;20188;-78
2022/07/25 03:24:47;;;;;;;6.07;4.43;;;24.60;99.90;;;;;;5074650;28;20195;-78
2022/07/25 03:27:15;;;;;;;6.00;5.25;;;24.50;99.90;;;;;;5091693;28;20212;-78
2022/07/25 03:29:41;;;;;;;8.05;5.53;;;24.30;99.90;;;;;;5092319;28;20185;-77
2022/07/25 03:32:07;;;;;;;6.97;4.88;;;24.20;99.90;;;;;;5092545;28;20184;-78
2022/07/25 03:34:34;;;;;;;4.93;4.43;;;24.30;99.90;;;;;;5093193;28;20180;-78
2022/07/25 03:37:00;;;;;;;6.00;4.93;;;24.40;99.90;;;;;;5079687;28;20223;-79
2022/07/25 03:39:26;;;;;;;5.88;4.82;;;24.30;99.90;;;;;;5092478;28;20184;-79
2022/07/25 03:41:53;;;;;;;8.77;5.88;;;24.40;99.90;;;;;;5092495;28;20680;-79
2022/07/25 03:44:20;;;;;;;5.85;4.70;;;24.30;99.90;;;;;;5075017;28;20188;-79
2022/07/25 03:46:46;;;;;;;5.60;4.80;;;24.30;99.90;;;;;;5091266;28;20208;-79
2022/07/25 03:49:11;;;;;;;8.80;4.90;;;24.30;99.90;;;;;;5082257;28;20184;-79
2022/07/25 03:51:37;;;;;;;6.03;4.45;;;24.40;99.90;;;;;;5081759;28;20200;-78
2022/07/25 03:54:07;;;;;;;6.85;5.00;;;24.40;99.90;;;;;;5086396;28;20177;-78
2022/07/25 03:56:42;;;;;;;7.45;5.00;;;24.50;99.90;;;;;;5085046;28;20230;-79
2022/07/25 03:59:08;;;;;;;5.53;4.90;;;24.40;99.90;;;;;;5071077;28;20176;-77
2022/07/25 04:01:34;;;;;;;7.90;5.57;;;24.30;99.90;;;;;;5079006;28;20243;-79
2022/07/25 04:04:01;;;;;;;7.22;5.03;;;24.20;99.90;;;;;;5067534;28;20177;-79
2022/07/25 04:06:27;;;;;;;4.50;3.85;;;24.10;99.90;;;;;;5092320;28;20206;-78
2022/07/25 04:08:54;;;;;;;7.60;4.25;;;24.00;99.90;;;;;;5068852;28;20543;-79
2022/07/25 04:11:20;;;;;;;4.90;3.78;;;23.90;99.90;;;;;;5073615;28;20237;-78
2022/07/25 04:13:46;;;;;;;7.00;4.32;;;23.90;99.90;;;;;;5092071;28;20245;-78
2022/07/25 04:16:12;;;;;;;5.97;4.85;;;23.80;99.90;;;;;;5091478;28;20517;-78
2022/07/25 04:18:37;;;;;;;8.00;4.88;;;23.80;99.90;;;;;;5085591;28;20272;-76
2022/07/25 04:21:03;;;;;;;4.97;3.88;;;23.60;99.90;;;;;;5057454;28;20184;-79
2022/07/25 04:23:30;;;;;;;5.22;3.80;;;23.60;99.90;;;;;;5083525;28;20188;-78
2022/07/25 04:25:56;;;;;;;6.05;3.08;;;23.60;99.90;;;;;;5080047;28;20192;-78
2022/07/25 04:28:23;;;;;;;5.60;2.90;;;23.60;99.90;;;;;;5084842;28;20246;-79
2022/07/25 04:30:49;;;;;;;6.78;3.45;;;23.60;99.90;;;;;;5054441;28;20204;-78
2022/07/25 04:33:15;;;;;;;5.22;3.95;;;23.70;99.90;;;;;;5076794;28;20193;-79
2022/07/25 04:35:41;;;;;;;6.45;2.72;;;23.70;99.90;;;;;;5090984;28;20199;-79
2022/07/25 04:38:07;;;;;;;3.83;2.35;;;23.70;99.90;;;;;;5064842;28;20189;-78
2022/07/25 04:40:32;;;;;;;2.78;2.17;;;23.70;99.90;;;;;;5057031;28;20238;-73
2022/07/25 04:42:58;;;;;;;3.72;3.08;;;23.80;99.90;;;;;;5078173;28;20533;-79
2022/07/25 04:45:24;;;;;;;4.35;2.30;;;23.70;99.90;;;;;;5093993;28;20577;-79
2022/07/25 04:47:50;;;;;;;8.27;2.25;;;23.60;99.90;;;;;;5080989;28;20205;-79
2022/07/25 04:50:16;;;;;;;5.70;2.47;;;23.70;99.90;;;;;;5061293;28;20284;-78
2022/07/25 04:52:42;;;;;;;4.70;2.67;;;23.50;99.90;;;;;;5075083;28;20230;-72
2022/07/25 04:55:08;;;;;;;7.28;2.33;;;23.50;99.90;;;;;;5078278;28;20185;-79
2022/07/25 04:57:34;;;;;;;7.25;2.42;;;23.50;99.90;;;;;;5094585;28;20259;-79
2022/07/25 05:00:00;;;;;;;3.58;1.92;;;23.50;99.90;;;;;;5073238;28;20279;-78
2022/07/25 05:02:26;;;;;;;2.85;1.98;;;23.40;99.90;;;;;;5092175;28;20184;-78
2022/07/25 05:04:52;;;;;;;9.80;2.60;;;23.50;99.90;;;;;;5088421;28;20197;-78
2022/07/25 05:07:18;;;;;;;2.72;2.15;;;23.30;99.90;;;;;;5071653;28;20341;-78
2022/07/25 05:09:44;;;;;;;6.47;3.13;;;23.30;99.90;;;;;;5072879;28;20291;-79
2022/07/25 05:12:10;;;;;;;7.65;2.40;;;23.20;99.90;;;;;;5060633;28;20653;-79
2022/07/25 05:14:37;;;;;;;4.65;2.00;;;23.10;99.90;;;;;;5077365;28;20191;-79
2022/07/25 05:17:03;;;;;;;7.00;2.85;;;23.30;99.90;;;;;;5090328;28;20197;-79
2022/07/25 05:19:29;;;;;;;3.90;2.17;;;23.40;99.90;;;;;;5077019;28;20192;-75
2022/07/25 05:21:54;;;;;;;10.85;2.42;;;23.40;99.90;;;;;;5094738;28;20181;-78
2022/07/25 05:24:21;;;;;;;4.97;2.20;;;23.50;99.90;;;;;;5085921;28;20196;-78
2022/07/25 05:26:47;;;;;;;7.43;3.80;;;23.50;99.90;;;;;;5070486;28;20240;-79
2022/07/25 05:29:13;;;;;;;5.47;2.45;;;23.50;99.90;;;;;;5089168;28;20589;-79
2022/07/25 05:31:39;;;;;;;8.63;2.17;;;23.50;99.90;;;;;;5059947;28;20223;-78
2022/07/25 05:34:04;;;;;;;4.53;2.95;;;23.40;99.90;;;;;;5095044;28;20638;-78
2022/07/25 05:36:30;;;;;;;6.70;2.83;;;23.50;99.90;;;;;;5092054;28;20705;-77
2022/07/25 05:38:56;;;;;;;9.02;3.80;;;23.40;99.90;;;;;;5077369;28;20191;-78
2022/07/25 05:41:21;;;;;;;4.72;2.40;;;23.30;99.90;;;;;;5090350;28;20268;-78
2022/07/25 05:43:47;;;;;;;7.70;2.67;;;23.40;99.90;;;;;;5079216;28;20195;-78
2022/07/25 05:46:14;;;;;;;4.75;1.88;;;23.50;99.90;;;;;;5095068;28;20693;-77
2022/07/25 05:48:40;;;;;;;3.33;1.45;;;23.70;99.90;;;;;;5060307;28;20299;-79
2022/07/25 05:51:06;;;;;;;3.13;1.67;;;23.80;99.90;;;;;;5071266;28;20196;-78
2022/07/25 05:53:32;;;;;;;7.85;3.38;;;23.90;99.90;;;;;;5087441;28;20193;-78
2022/07/25 05:55:58;;;;;;;3.15;2.30;;;24.00;99.90;;;;;;5093714;28;20188;-79
2022/07/25 05:58:24;;;;;;;7.28;2.08;;;24.00;99.90;;;;;;5061278;28;20189;-78
2022/07/25 06:00:49;;;;;;;12.95;1.67;;;24.10;99.90;;;;;;5091602;28;20680;-79
2022/07/25 06:03:17;;;;;;;8.15;2.40;;;24.30;99.90;;;;;;5086705;28;20668;-75
2022/07/25 06:05:43;;;;;;;6.72;2.88;;;24.20;99.90;;;;;;5062124;28;20197;-79
2022/07/25 06:08:09;;;;;;;4.68;1.88;;;24.10;99.90;;;;;;5094940;28;20208;-71
2022/07/25 06:10:35;;;;;;;2.20;1.75;;;24.10;99.90;;;;;;5095184;28;20238;-70
2022/07/25 06:13:00;;;;;;;6.88;1.77;;;24.20;99.90;;;;;;5076264;28;20321;-72
2022/07/25 06:15:26;;;;;;;2.38;1.90;;;24.10;99.90;;;;;;5076556;28;21623;-69
2022/07/25 06:17:52;;;;;;;5.50;1.83;;;24.00;99.90;;;;;;5094413;28;20181;-69
2022/07/25 06:20:18;;;;;;;5.43;2.10;;;24.10;99.90;;;;;;5084094;28;20220;-67
2022/07/25 06:22:43;;;;;;;5.90;2.08;;;24.10;99.90;;;;;;5068991;28;20193;-69
2022/07/25 06:25:09;;;;;;;22.23;2.58;;;24.30;99.90;;;;;;5076175;28;20188;-69
2022/07/25 06:27:36;;;;;;;2.70;2.40;;;24.20;99.90;;;;;;5057086;28;20212;-69
2022/07/25 06:30:04;;;;;;;5.10;2.42;;;24.20;99.90;;;;;;5068531;28;20192;-69
2022/07/25 06:32:30;;;;;;;4.55;1.80;;;24.40;99.90;;;;;;5086317;28;20194;-68
2022/07/25 06:34:55;;;;;;;3.40;1.63;;;24.50;99.90;;;;;;5074361;28;20180;-65
2022/07/25 06:37:21;;;;;;;4.85;1.55;;;24.80;99.90;;;;;;5074560;28;20250;-64
2022/07/25 06:39:47;;;;;;;3.75;1.75;;;24.90;99.90;;;;;;5058537;28;20234;-68
2022/07/25 06:42:12;;;;;;;5.65;2.25;;;25.10;99.90;;;;;;5063778;28;20223;-67
2022/07/25 06:44:38;;;;;;;4.60;2.33;;;25.10;99.90;;;;;;5073566;28;20212;-68
2022/07/25 06:47:04;;;;;;;5.80;2.00;;;25.00;99.90;;;;;;5060720;28;20223;-67
2022/07/25 06:49:30;;;;;;;4.68;2.65;;;24.80;99.90;;;;;;5094424;28;20638;-66
2022/07/25 06:51:56;;;;;;;2.75;1.80;;;24.90;99.90;;;;;;5093231;28;20188;-72
2022/07/25 06:54:22;;;;;;;2.55;1.50;;;25.00;99.90;;;;;;5090120;28;20534;-74
2022/07/25 06:56:48;;;;;;;2.35;1.77;;;25.30;99.90;;;;;;5074296;28;20196;-75
2022/07/25 06:59:14;;;;;;;6.75;2.80;;;25.30;99.90;;;;;;5089071;28;20579;-73
2022/07/25 07:01:39;;;;;;;1.90;1.58;;;25.30;99.90;;;;;;5092443;28;20185;-74
2022/07/25 07:04:05;;;;;;;5.65;1.85;;;25.50;99.90;;;;;;5071948;28;20191;-75
2022/07/25 07:06:31;;;;;;;3.75;1.58;;;25.60;99.90;;;;;;5072284;28;20230;-73
2022/07/25 07:08:57;;;;;;;7.68;1.70;;;25.80;99.90;;;;;;5092619;28;20223;-74
2022/07/25 07:11:23;;;;;;;3.75;1.92;;;25.90;99.90;;;;;;5091618;28;20611;-74
2022/07/25 07:13:48;;;;;;;8.18;2.30;;;26.30;99.90;;;;;;5085686;28;20256;-73
2022/07/25 07:16:14;;;;;;;2.63;2.28;;;26.20;99.90;;;;;;5064308;28;20231;-73
2022/07/25 07:18:40;;;;;;;3.03;1.50;;;26.20;99.90;;;;;;5091499;28;20552;-73
2022/07/25 07:21:06;;;;;;;2.00;1.38;;;26.20;99.90;;;;;;5089510;28;20270;-73
2022/07/25 07:23:32;;;;;;;1.00;1.00;;;26.40;99.90;;;;;;5073964;28;20516;-73
2022/07/25 07:25:58;;;;;;;4.25;1.40;;;27.00;99.90;;;;;;5077741;28;20184;-73
2022/07/25 07:28:23;;;;;;;2.50;1.15;;;27.50;99.90;;;;;;5057236;28;20195;-73
2022/07/25 07:30:49;;;;;;;6.18;1.60;;;27.60;99.90;;;;;;5090905;28;20191;-73
2022/07/25 07:33:15;;;;;;;4.78;1.27;;;27.70;99.90;;;;;;5051765;28;20647;-73
2022/07/25 07:35:44;;;;;;;1.77;1.15;;;28.00;99.90;;;;;;5088341;28;20188;-73
2022/07/25 07:38:10;;;;;;;2.90;1.10;;;28.70;99.90;;;;;;5090958;28;20194;-73
2022/07/25 07:40:36;;;;;;;1.80;1.20;;;29.60;99.90;;;;;;5074826;28;20172;-73
2022/07/25 07:43:02;;;;;;;1.83;1.20;;;30.70;99.90;;;;;;5092693;28;20190;-73
2022/07/25 07:45:29;;;;;;;1.23;0.73;;;31.80;99.90;;;;;;5071328;28;20188;-73
2022/07/25 07:47:55;;;;;;;2.53;1.63;;;32.20;99.90;;;;;;5089485;28;20205;-73
2022/07/25 07:50:24;;;;;;;7.22;2.28;;;32.20;99.90;;;;;;5066353;28;20177;-73
2022/07/25 07:52:52;;;;;;;2.92;0.88;;;32.10;99.90;;;;;;5060215;28;20180;-73
2022/07/25 07:58:03;;;;;;;3.08;0.93;;;31.60;99.90;;;;;;5081202;28;20567;-74
2022/07/25 08:00:34;;;;;;;2.63;1.00;;;31.70;99.90;;;;;;5089531;28;20241;-74
2022/07/25 08:03:00;;;;;;;1.70;1.20;;;32.60;99.90;;;;;;5080576;28;20180;-73
2022/07/25 08:05:31;;;;;;;2.42;1.08;;;33.40;99.90;;;;;;5055162;28;20172;-72
2022/07/25 08:07:57;;;;;;;2.60;1.83;;;34.10;99.90;;;;;;5090590;28;20192;-74
2022/07/25 08:10:25;;;;;;;2.33;1.13;;;34.50;99.90;;;;;;5062326;28;20189;-74
2022/07/25 08:12:51;;;;;;;3.30;1.23;;;34.80;99.90;;;;;;5090312;28;20217;-73
2022/07/25 08:15:18;;;;;;;5.28;1.27;;;35.20;99.90;;;;;;5074347;28;20667;-73
2022/07/25 08:17:45;;;;;;;2.35;1.85;;;35.50;99.90;;;;;;5092815;28;20246;-74
2022/07/25 08:20:12;;;;;;;3.15;2.03;;;36.00;99.90;;;;;;5074348;28;20527;-73
2022/07/25 08:22:46;;;;;;;2.35;1.42;;;36.50;99.90;;;;;;5076020;28;20180;-73
2022/07/25 08:25:17;;;;;;;1.50;0.80;;;36.70;99.90;;;;;;5093154;28;20509;-73
2022/07/25 08:27:43;;;;;;;2.97;1.10;;;36.90;99.90;;;;;;5080904;28;20203;-73
2022/07/25 08:30:09;;;;;;;1.10;1.10;;;36.90;99.90;;;;;;5079874;28;20185;-73
2022/07/25 08:32:52;;;;;;;1.63;0.98;;;37.20;99.90;;;;;;5088261;28;20195;-72
2022/07/25 08:35:19;;;;;;;1.85;0.90;;;36.70;99.90;;;;;;5094563;28;20613;-73
2022/07/25 08:37:46;;;;;;;3.33;1.25;;;36.30;99.90;;;;;;5090692;28;20649;-73
2022/07/25 08:40:14;;;;;;;2.05;1.33;;;35.80;99.90;;;;;;5093957;28;20176;-73
2022/07/25 08:42:40;;;;;;;8.93;1.88;;;35.40;99.90;;;;;;5092711;28;20222;-73
2022/07/25 08:45:08;;;;;;;4.30;1.95;;;35.00;99.90;;;;;;5074501;28;20696;-73
2022/07/25 08:47:35;;;;;;;1.83;1.45;;;35.00;99.90;;;;;;5093089;28;20237;-73
2022/07/25 08:50:07;;;;;;;1.83;0.98;;;35.40;99.90;;;;;;5092259;28;20249;-73
2022/07/25 08:52:36;;;;;;;1.38;1.20;;;35.30;99.90;;;;;;5071261;28;20496;-73
2022/07/25 08:55:08;;;;;;;1.73;1.23;;;35.60;99.90;;;;;;5055272;28;20180;-73
2022/07/25 08:57:36;;;;;;;1.42;1.10;;;35.80;99.90;;;;;;5060463;28;20200;-73
2022/07/25 09:00:05;;;;;;;7.18;1.70;;;36.50;99.90;;;;;;5083926;28;20198;-73
2022/07/25 09:02:31;;;;;;;5.38;1.90;;;36.40;99.90;;;;;;5056932;28;20538;-73
2022/07/25 09:04:58;;;;;;;1.30;1.20;;;35.70;99.90;;;;;;5084810;28;20181;-73
2022/07/25 09:07:32;;;;;;;2.72;1.60;;;35.60;99.90;;;;;;5082183;28;20604;-73
2022/07/25 09:09:58;;;;;;;1.38;1.15;;;36.20;99.90;;;;;;5080923;28;20231;-74
2022/07/25 09:12:27;;;;;;;2.35;1.27;;;36.50;99.90;;;;;;5091707;28;20184;-73
2022/07/25 09:14:53;;;;;;;1.90;1.08;;;36.70;99.90;;;;;;5092021;28;20180;-74
2022/07/25 09:17:19;;;;;;;9.57;1.63;;;36.60;99.90;;;;;;5091888;28;20706;-74
2022/07/25 09:19:56;;;;;;;5.10;1.80;;;36.20;99.90;;;;;;5080826;28;20184;-73
2022/07/25 09:22:22;;;;;;;2.22;1.20;;;35.60;99.90;;;;;;5090201;28;20188;-75
2022/07/25 09:24:48;;;;;;;1.80;1.23;;;35.80;99.90;;;;;;5070853;28;20180;-73
2022/07/25 09:27:16;;;;;;;2.72;1.35;;;35.70;99.90;;;;;;5067969;28;20196;-74
2022/07/25 09:29:42;;;;;;;1.02;0.93;;;35.10;99.90;;;;;;5094688;28;20651;-73
2022/07/25 09:32:19;;;;;;;1.40;1.25;;;34.40;99.90;;;;;;5058398;28;20685;-74
2022/07/25 09:34:48;;;;;;;4.85;1.77;;;34.10;99.90;;;;;;5076917;28;20337;-73
2022/07/25 09:37:16;;;;;;;3.00;1.60;;;33.40;99.90;;;;;;5081436;28;20561;-74
2022/07/25 09:39:41;;;;;;;1.42;1.33;;;32.90;99.90;;;;;;5077424;28;20246;-73
2022/07/25 09:42:19;;;;;;;1.33;1.05;;;32.60;99.90;;;;;;5093579;28;20207;-74
2022/07/25 09:44:57;;;;;;;3.30;1.17;;;32.30;99.90;;;;;;5086880;28;20176;-73
2022/07/25 09:47:23;;;;;;;1.85;1.20;;;31.50;99.90;;;;;;5082260;28;20188;-74
2022/07/25 09:49:48;;;;;;;1.75;1.65;;;31.20;99.90;;;;;;5095368;28;20529;-73
2022/07/25 09:52:16;;;;;;;1.95;1.33;;;30.90;99.90;;;;;;5086110;28;20621;-74
2022/07/25 09:54:42;;;;;;;3.20;1.02;;;31.00;99.90;;;;;;5092650;28;20808;-74
2022/07/25 09:57:08;;;;;;;1.20;1.10;;;31.00;99.90;;;;;;5090408;28;20176;-73
2022/07/25 09:59:35;;;;;;;1.13;1.02;;;31.00;99.90;;;;;;5059931;28;20209;-73
2022/07/25 10:02:09;;;;;;;2.47;1.67;;;30.90;99.90;;;;;;5095140;28;20202;-73
2022/07/25 10:04:44;;;;;;;3.35;1.48;;;30.80;99.90;;;;;;5068537;28;20258;-73
2022/07/25 10:07:13;;;;;;;1.95;1.45;;;30.70;99.90;;;;;;5095518;28;20637;-73
2022/07/25 10:09:48;;;;;;;3.75;1.77;;;30.60;99.90;;;;;;5082062;28;20637;-74
2022/07/25 10:12:19;;;;;;;1.50;1.40;;;30.50;99.90;;;;;;5086267;28;20182;-73
2022/07/25 10:15:10;;;;;;;2.35;1.50;;;30.30;99.90;;;;;;5076353;28;20271;-73
2022/07/25 10:17:37;;;;;;;1.98;1.50;;;29.90;99.90;;;;;;5094423;28;20644;-73
2022/07/25 10:20:08;;;;;;;2.13;1.55;;;30.10;99.90;;;;;;5093942;28;20176;-71
2022/07/25 10:22:42;;;;;;;3.53;2.10;;;30.00;99.90;;;;;;5076711;28;20199;-72
2022/07/25 10:25:18;;;;;;;5.38;2.25;;;29.90;99.90;;;;;;5082341;28;20518;-75
2022/07/25 10:27:47;;;;;;;1.63;1.52;;;29.60;99.90;;;;;;5093629;28;20686;-74
2022/07/25 10:30:24;;;;;;;3.80;1.65;;;29.50;99.90;;;;;;5093869;28;20182;-74
2022/07/25 10:33:02;;;;;;;3.08;1.88;;;29.40;99.90;;;;;;5084911;28;20184;-73
2022/07/25 10:35:28;;;;;;;3.85;2.03;;;29.30;99.90;;;;;;5081136;28;20176;-74
2022/07/25 10:37:56;;;;;;;8.23;1.80;;;29.30;99.90;;;;;;5094397;28;20196;-73
2022/07/25 10:40:32;;;;;;;3.65;2.88;;;29.30;99.90;;;;;;5067128;28;20191;-72
2022/07/25 10:43:21;;;;;;;4.45;2.40;;;29.40;99.90;;;;;;5083053;28;20172;-73
2022/07/25 10:45:57;;;;;;;1.63;1.52;;;29.40;99.90;;;;;;5072280;28;20193;-73
2022/07/25 10:48:28;;;;;;;1.92;1.75;;;29.20;99.90;;;;;;5073321;28;20237;-73
2022/07/25 10:51:01;;;;;;;3.03;1.80;;;29.00;99.90;;;;;;5094113;28;20183;-73
2022/07/25 10:53:34;;;;;;;10.15;2.05;;;29.10;99.90;;;;;;5090899;28;20230;-73
2022/07/25 10:56:19;;;;;;;3.70;1.92;;;29.10;99.90;;;;;;5061947;28;20210;-73
2022/07/25 10:58:51;;;;;;;5.40;1.30;;;29.00;99.90;;;;;;5082409;28;20180;-74
2022/07/25 11:01:28;;;;;;;3.00;1.50;;;29.00;99.90;;;;;;5090478;28;20230;-73
2022/07/25 11:03:56;;;;;;;1.27;1.17;;;28.80;99.90;;;;;;5074010;28;20264;-74
2022/07/25 11:06:36;;;;;;;2.33;1.63;;;28.80;99.90;;;;;;5056744;28;20192;-74
2022/07/25 11:09:23;;;;;;;3.95;1.85;;;28.80;99.90;;;;;;5090285;28;20737;-73
2022/07/25 11:11:52;;;;;;;6.22;1.60;;;28.40;99.90;;;;;;5059326;28;20688;-73
2022/07/25 11:14:22;;;;;;;5.60;2.13;;;28.00;99.90;;;;;;5092491;28;20620;-74
2022/07/25 11:16:50;;;;;;;2.90;1.45;;;27.80;99.90;;;;;;5093077;28;20180;-73
2022/07/25 11:19:17;;;;;;;20.23;1.75;;;27.50;99.90;;;;;;5090435;28;20176;-73
2022/07/25 11:21:49;;;;;;;4.25;2.33;;;27.40;99.90;;;;;;5075488;28;20198;-73
2022/07/25 11:24:14;;;;;;;2.85;1.60;;;27.10;99.90;;;;;;5093703;28;20241;-73
2022/07/25 11:26:50;;;;;;;4.35;2.13;;;27.00;99.90;;;;;;5087803;28;20192;-73
2022/07/25 11:29:23;;;;;;;6.75;1.55;;;26.90;99.90;;;;;;5093102;28;20210;-72
2022/07/25 11:31:57;;;;;;;2.53;1.70;;;26.90;99.90;;;;;;5093536;28;20211;-73
2022/07/25 11:34:26;;;;;;;1.48;1.38;;;26.80;99.90;;;;;;5074938;28;20176;-73
2022/07/25 11:36:55;;;;;;;3.60;1.67;;;26.70;99.90;;;;;;5070956;28;20184;-72
2022/07/25 11:39:24;;;;;;;2.25;1.73;;;26.50;99.90;;;;;;5089407;28;20220;-72
2022/07/25 11:42:05;;;;;;;3.78;1.70;;;26.20;99.90;;;;;;5087541;28;20181;-73
2022/07/25 11:44:45;;;;;;;2.10;1.73;;;26.10;99.90;;;;;;5093097;28;20180;-73
2022/07/25 11:47:29;;;;;;;2.90;2.33;;;26.10;99.90;;;;;;5091768;28;20294;-72
2022/07/25 11:50:01;;;;;;;3.65;1.63;;;25.80;99.90;;;;;;5092210;28;20590;-73
2022/07/25 11:52:37;;;;;;;2.85;2.08;;;25.80;99.90;;;;;;5093239;28;20633;-73
2022/07/25 11:55:05;;;;;;;4.35;1.67;;;26.00;99.90;;;;;;5070841;28;20180;-73
2022/07/25 11:57:35;;;;;;;4.70;2.10;;;26.00;99.90;;;;;;5080848;28;20621;-73
2022/07/25 12:00:05;;;;;;;2.67;1.67;;;26.20;99.90;;;;;;5080426;28;20176;-73
2022/07/25 12:02:33;;;;;;;4.82;2.13;;;26.40;99.90;;;;;;5087724;28;20177;-74
2022/07/25 12:05:08;;;;;;;2.45;1.83;;;26.70;99.90;;;;;;5090871;28;20175;-72
2022/07/25 12:07:40;;;;;;;2.72;2.45;;;27.00;99.90;;;;;;5088048;28;20706;-75
2022/07/25 12:10:16;;;;;;;4.57;1.95;;;27.40;99.90;;;;;;5067542;28;20192;-74
2022/07/25 12:12:48;;;;;;;3.97;1.63;;;27.80;99.90;;;;;;5070653;28;20175;-75
2022/07/25 12:15:16;;;;;;;5.43;1.70;;;28.10;99.90;;;;;;5080307;28;20188;-73
2022/07/25 12:17:42;;;;;;;4.00;1.77;;;28.00;99.90;;;;;;5079498;28;20180;-75
2022/07/25 12:20:19;;;;;;;1.50;1.40;;;27.90;99.90;;;;;;5092371;28;20196;-72
2022/07/25 12:22:47;;;;;;;8.20;3.15;;;27.60;99.90;;;;;;5073898;28;20176;-69
2022/07/25 12:25:13;;;;;;;3.25;1.80;;;27.50;99.90;;;;;;5085848;28;20172;-70
2022/07/25 12:27:39;;;;;;;1.48;1.30;;;27.60;99.90;;;;;;5092114;28;20208;-72
2022/07/25 12:30:06;;;;;;;4.50;1.55;;;27.50;99.90;;;;;;5089794;28;20203;-70
2022/07/25 12:32:31;;;;;;;2.22;1.40;;;27.50;99.90;;;;;;5065300;28;20180;-71
2022/07/25 12:34:57;;;;;;;3.78;2.47;;;27.40;99.90;;;;;;5082433;28;20176;-71
2022/07/25 12:37:24;;;;;;;2.53;1.45;;;27.40;99.90;;;;;;5074346;28;20274;-71
2022/07/25 12:39:50;;;;;;;7.13;2.75;;;27.70;99.90;;;;;;5074774;28;20188;-71
2022/07/25 12:42:16;;;;;;;5.93;2.65;;;27.70;99.90;;;;;;5092124;28;20233;-71
2022/07/25 12:44:41;;;;;;;6.35;1.42;;;28.10;99.90;;;;;;5069121;28;20173;-71
2022/07/25 12:47:07;;;;;;;2.20;1.30;;;28.10;99.90;;;;;;5064960;28;20200;-71
2022/07/25 12:49:33;;;;;;;3.08;1.42;;;28.10;99.90;;;;;;5050686;28;20334;-71